NCAR-RAP Real-Time Weather Data

Output produced by METARs form (08 May 2021  01:15 UTC)
found at http://weather.rap.ucar.edu/surface/
 
KBBW 080053Z AUTO 10014G22KT 10SM CLR 18/06 A2991 RMK AO2 SLP121 T01780056
KBBW 072353Z AUTO 10015G27KT 10SM CLR 19/06 A2992 RMK AO2 PK WND 09027/2346 SLP127 T01940061 10217 20183 56021
KBBW 072253Z AUTO 10018G26KT 10SM CLR 21/06 A2993 RMK AO2 PK WND 08026/2251 SLP132 T02060061
KBBW 072153Z AUTO 12014G23KT 10SM CLR 21/06 A2995 RMK AO2 PK WND 11027/2054 SLP140 T02060061
KBBW 072053Z AUTO 11015G22KT 10SM CLR 21/06 A2998 RMK AO2 PK WND 11027/2019 SLP149 T02060061 56022
KBBW 071953Z AUTO 10016G24KT 10SM BKN049 21/06 A3000 RMK AO2 SLP156 T02060061
KBBW 071853Z AUTO 11011G20KT 10SM CLR 20/06 A3002 RMK AO2 SLP162 T02000061
KBBW 071753Z AUTO 09013G21KT 10SM OVC048 18/06 A3005 RMK AO2 SLP171 T01830061 10183 20044 58017
KBBW 071653Z AUTO 10012KT 10SM OVC050 18/04 A3008 RMK AO2 SLP182 T01780044
KBBW 071553Z AUTO 09008KT 10SM OVC050 16/04 A3009 RMK AO2 SLP189 T01560044
KBBW 071453Z AUTO 14006KT 10SM OVC050 14/04 A3011 RMK AO2 SLP194 T01440039 58005
KBBW 071353Z AUTO 00000KT 10SM OVC055 12/06 A3012 RMK AO2 SLP197 T01170056
KBBW 071253Z AUTO 00000KT 10SM SCT060 08/04 A3012 RMK AO2 SLP194 T00830039
KBBW 071153Z AUTO 00000KT 10SM SCT060 04/02 A3012 RMK AO2 SLP195 T00440017 10061 20022 58002
KBBW 071053Z AUTO 00000KT 10SM CLR 03/00 A3012 RMK AO2 SLP201 T00280000